sensor_id;sensor_type;location;lat;lon;timestamp;P1;durP1;ratioP1;P2;durP2;ratioP2
21769;SDS011;11046;49.558;8.674;2022-08-21T00:00:33;6.40;;;3.90;;
21769;SDS011;11046;49.558;8.674;2022-08-21T00:03:34;5.38;;;3.92;;
21769;SDS011;11046;49.558;8.674;2022-08-21T00:06:36;5.00;;;3.20;;
21769;SDS011;11046;49.558;8.674;2022-08-21T00:09:38;5.65;;;3.67;;
21769;SDS011;11046;49.558;8.674;2022-08-21T00:12:39;6.45;;;3.65;;
21769;SDS011;11046;49.558;8.674;2022-08-21T00:15:41;5.88;;;3.70;;
21769;SDS011;11046;49.558;8.674;2022-08-21T00:18:42;6.97;;;3.47;;
21769;SDS011;11046;49.558;8.674;2022-08-21T00:21:44;4.43;;;3.55;;
21769;SDS011;11046;49.558;8.674;2022-08-21T00:24:45;9.85;;;3.75;;
21769;SDS011;11046;49.558;8.674;2022-08-21T00:27:46;5.97;;;3.80;;
21769;SDS011;11046;49.558;8.674;2022-08-21T00:30:47;7.95;;;3.88;;
21769;SDS011;11046;49.558;8.674;2022-08-21T00:33:48;5.70;;;3.70;;
21769;SDS011;11046;49.558;8.674;2022-08-21T00:36:49;8.98;;;4.15;;
21769;SDS011;11046;49.558;8.674;2022-08-21T00:39:50;6.18;;;4.45;;
21769;SDS011;11046;49.558;8.674;2022-08-21T00:42:51;7.68;;;4.05;;
21769;SDS011;11046;49.558;8.674;2022-08-21T00:45:53;11.15;;;3.92;;
21769;SDS011;11046;49.558;8.674;2022-08-21T00:48:54;5.35;;;4.05;;
21769;SDS011;11046;49.558;8.674;2022-08-21T00:51:57;6.13;;;3.90;;
21769;SDS011;11046;49.558;8.674;2022-08-21T00:55:00;5.80;;;4.13;;
21769;SDS011;11046;49.558;8.674;2022-08-21T00:58:02;7.55;;;4.40;;
21769;SDS011;11046;49.558;8.674;2022-08-21T01:01:04;6.88;;;4.30;;
21769;SDS011;11046;49.558;8.674;2022-08-21T01:04:05;8.77;;;4.05;;
21769;SDS011;11046;49.558;8.674;2022-08-21T01:07:07;7.10;;;3.85;;
21769;SDS011;11046;49.558;8.674;2022-08-21T01:10:08;7.53;;;4.13;;
21769;SDS011;11046;49.558;8.674;2022-08-21T01:13:10;6.38;;;4.10;;
21769;SDS011;11046;49.558;8.674;2022-08-21T01:16:13;16.48;;;4.30;;
21769;SDS011;11046;49.558;8.674;2022-08-21T01:19:17;7.70;;;4.00;;
21769;SDS011;11046;49.558;8.674;2022-08-21T01:22:18;6.80;;;4.20;;
21769;SDS011;11046;49.558;8.674;2022-08-21T01:25:19;6.43;;;4.22;;
21769;SDS011;11046;49.558;8.674;2022-08-21T01:28:21;8.05;;;4.57;;
21769;SDS011;11046;49.558;8.674;2022-08-21T01:31:23;7.63;;;4.53;;
21769;SDS011;11046;49.558;8.674;2022-08-21T01:34:24;5.80;;;4.45;;
21769;SDS011;11046;49.558;8.674;2022-08-21T01:37:25;5.47;;;4.45;;
21769;SDS011;11046;49.558;8.674;2022-08-21T01:40:27;13.02;;;6.07;;
21769;SDS011;11046;49.558;8.674;2022-08-21T01:43:28;9.68;;;5.07;;
21769;SDS011;11046;49.558;8.674;2022-08-21T01:46:29;6.85;;;4.60;;
21769;SDS011;11046;49.558;8.674;2022-08-21T01:49:30;5.65;;;4.40;;
21769;SDS011;11046;49.558;8.674;2022-08-21T01:52:31;11.68;;;4.78;;
21769;SDS011;11046;49.558;8.674;2022-08-21T01:55:32;6.78;;;4.78;;
21769;SDS011;11046;49.558;8.674;2022-08-21T01:58:33;10.23;;;5.00;;
21769;SDS011;11046;49.558;8.674;2022-08-21T02:01:35;7.70;;;4.97;;
21769;SDS011;11046;49.558;8.674;2022-08-21T02:04:36;8.65;;;5.07;;
21769;SDS011;11046;49.558;8.674;2022-08-21T02:07:41;8.32;;;5.03;;
21769;SDS011;11046;49.558;8.674;2022-08-21T02:10:42;8.18;;;5.30;;
21769;SDS011;11046;49.558;8.674;2022-08-21T02:13:46;10.88;;;5.00;;
21769;SDS011;11046;49.558;8.674;2022-08-21T02:16:47;7.82;;;4.80;;
21769;SDS011;11046;49.558;8.674;2022-08-21T02:19:48;8.75;;;5.45;;
21769;SDS011;11046;49.558;8.674;2022-08-21T02:22:50;7.95;;;5.13;;
21769;SDS011;11046;49.558;8.674;2022-08-21T02:25:51;7.05;;;5.22;;
21769;SDS011;11046;49.558;8.674;2022-08-21T02:28:52;6.10;;;4.75;;
21769;SDS011;11046;49.558;8.674;2022-08-21T02:31:53;9.48;;;5.30;;
21769;SDS011;11046;49.558;8.674;2022-08-21T02:34:54;8.15;;;5.13;;
21769;SDS011;11046;49.558;8.674;2022-08-21T02:37:59;9.00;;;5.32;;
21769;SDS011;11046;49.558;8.674;2022-08-21T02:41:01;7.28;;;5.15;;
21769;SDS011;11046;49.558;8.674;2022-08-21T02:44:02;10.02;;;6.20;;
21769;SDS011;11046;49.558;8.674;2022-08-21T02:47:03;7.40;;;5.85;;
21769;SDS011;11046;49.558;8.674;2022-08-21T02:50:05;7.95;;;5.55;;
21769;SDS011;11046;49.558;8.674;2022-08-21T02:53:06;10.32;;;5.47;;
21769;SDS011;11046;49.558;8.674;2022-08-21T02:56:09;8.20;;;5.45;;
21769;SDS011;11046;49.558;8.674;2022-08-21T02:59:10;7.30;;;5.72;;
21769;SDS011;11046;49.558;8.674;2022-08-21T03:02:11;10.48;;;5.72;;
21769;SDS011;11046;49.558;8.674;2022-08-21T03:05:12;10.73;;;5.55;;
21769;SDS011;11046;49.558;8.674;2022-08-21T03:08:15;7.22;;;5.70;;
21769;SDS011;11046;49.558;8.674;2022-08-21T03:11:16;7.80;;;5.40;;
21769;SDS011;11046;49.558;8.674;2022-08-21T03:14:19;14.77;;;5.45;;
21769;SDS011;11046;49.558;8.674;2022-08-21T03:17:20;9.43;;;5.80;;
21769;SDS011;11046;49.558;8.674;2022-08-21T03:20:22;9.65;;;6.03;;
21769;SDS011;11046;49.558;8.674;2022-08-21T03:23:23;10.90;;;6.25;;
21769;SDS011;11046;49.558;8.674;2022-08-21T03:26:24;7.85;;;5.93;;
21769;SDS011;11046;49.558;8.674;2022-08-21T03:29:25;7.20;;;5.80;;
21769;SDS011;11046;49.558;8.674;2022-08-21T03:32:27;9.02;;;6.07;;
21769;SDS011;11046;49.558;8.674;2022-08-21T03:35:29;9.05;;;5.60;;
21769;SDS011;11046;49.558;8.674;2022-08-21T03:38:31;11.13;;;6.00;;
21769;SDS011;11046;49.558;8.674;2022-08-21T03:41:32;9.43;;;5.68;;
21769;SDS011;11046;49.558;8.674;2022-08-21T03:44:34;8.38;;;5.90;;
21769;SDS011;11046;49.558;8.674;2022-08-21T03:47:35;9.25;;;6.32;;
21769;SDS011;11046;49.558;8.674;2022-08-21T03:50:37;10.32;;;6.03;;
21769;SDS011;11046;49.558;8.674;2022-08-21T03:53:39;7.95;;;5.57;;
21769;SDS011;11046;49.558;8.674;2022-08-21T03:56:40;8.23;;;6.20;;
21769;SDS011;11046;49.558;8.674;2022-08-21T03:59:41;8.70;;;6.13;;
21769;SDS011;11046;49.558;8.674;2022-08-21T04:02:43;11.20;;;6.20;;
21769;SDS011;11046;49.558;8.674;2022-08-21T04:05:44;10.48;;;6.13;;
21769;SDS011;11046;49.558;8.674;2022-08-21T04:08:45;10.27;;;5.97;;
21769;SDS011;11046;49.558;8.674;2022-08-21T04:11:46;11.13;;;6.10;;
21769;SDS011;11046;49.558;8.674;2022-08-21T04:14:48;8.77;;;6.05;;
21769;SDS011;11046;49.558;8.674;2022-08-21T04:17:49;8.48;;;5.93;;
21769;SDS011;11046;49.558;8.674;2022-08-21T04:20:51;11.73;;;6.40;;
21769;SDS011;11046;49.558;8.674;2022-08-21T04:23:53;9.13;;;6.22;;
21769;SDS011;11046;49.558;8.674;2022-08-21T04:26:54;9.15;;;6.38;;
21769;SDS011;11046;49.558;8.674;2022-08-21T04:29:56;10.85;;;5.95;;
21769;SDS011;11046;49.558;8.674;2022-08-21T04:32:57;11.38;;;7.00;;
21769;SDS011;11046;49.558;8.674;2022-08-21T04:35:58;15.68;;;6.55;;
21769;SDS011;11046;49.558;8.674;2022-08-21T04:39:00;10.48;;;6.68;;
21769;SDS011;11046;49.558;8.674;2022-08-21T04:42:01;9.48;;;6.32;;
21769;SDS011;11046;49.558;8.674;2022-08-21T04:45:02;10.63;;;6.63;;
21769;SDS011;11046;49.558;8.674;2022-08-21T04:48:05;10.77;;;6.63;;
21769;SDS011;11046;49.558;8.674;2022-08-21T04:51:10;12.25;;;6.78;;
21769;SDS011;11046;49.558;8.674;2022-08-21T04:54:17;8.20;;;6.28;;
21769;SDS011;11046;49.558;8.674;2022-08-21T04:57:19;13.38;;;6.25;;
21769;SDS011;11046;49.558;8.674;2022-08-21T05:00:21;10.45;;;6.63;;
21769;SDS011;11046;49.558;8.674;2022-08-21T05:03:24;9.63;;;6.57;;
21769;SDS011;11046;49.558;8.674;2022-08-21T05:06:26;11.63;;;6.75;;
21769;SDS011;11046;49.558;8.674;2022-08-21T05:09:29;12.43;;;6.55;;
21769;SDS011;11046;49.558;8.674;2022-08-21T05:12:30;10.32;;;6.53;;
21769;SDS011;11046;49.558;8.674;2022-08-21T05:15:32;8.00;;;6.15;;
21769;SDS011;11046;49.558;8.674;2022-08-21T05:18:34;12.35;;;7.43;;
21769;SDS011;11046;49.558;8.674;2022-08-21T05:21:35;10.73;;;6.50;;
21769;SDS011;11046;49.558;8.674;2022-08-21T05:24:37;11.85;;;6.85;;
21769;SDS011;11046;49.558;8.674;2022-08-21T05:27:38;12.93;;;6.53;;
21769;SDS011;11046;49.558;8.674;2022-08-21T05:30:39;12.48;;;7.80;;
21769;SDS011;11046;49.558;8.674;2022-08-21T05:33:40;11.38;;;7.55;;
21769;SDS011;11046;49.558;8.674;2022-08-21T05:36:42;9.82;;;6.97;;
21769;SDS011;11046;49.558;8.674;2022-08-21T05:39:43;10.57;;;6.72;;
21769;SDS011;11046;49.558;8.674;2022-08-21T05:42:44;10.85;;;6.30;;
21769;SDS011;11046;49.558;8.674;2022-08-21T05:45:45;15.43;;;7.03;;
21769;SDS011;11046;49.558;8.674;2022-08-21T05:48:47;9.65;;;6.72;;
21769;SDS011;11046;49.558;8.674;2022-08-21T05:51:48;8.43;;;6.80;;
21769;SDS011;11046;49.558;8.674;2022-08-21T05:54:49;13.57;;;6.40;;
21769;SDS011;11046;49.558;8.674;2022-08-21T05:57:53;14.05;;;6.80;;
21769;SDS011;11046;49.558;8.674;2022-08-21T06:00:54;12.82;;;6.55;;
21769;SDS011;11046;49.558;8.674;2022-08-21T06:03:55;10.10;;;6.78;;
21769;SDS011;11046;49.558;8.674;2022-08-21T06:06:56;9.75;;;6.45;;
21769;SDS011;11046;49.558;8.674;2022-08-21T06:09:57;12.63;;;6.65;;
21769;SDS011;11046;49.558;8.674;2022-08-21T06:12:59;10.82;;;7.15;;
21769;SDS011;11046;49.558;8.674;2022-08-21T06:16:05;9.55;;;6.75;;
21769;SDS011;11046;49.558;8.674;2022-08-21T06:19:06;12.98;;;6.63;;
21769;SDS011;11046;49.558;8.674;2022-08-21T06:22:07;12.20;;;6.18;;
21769;SDS011;11046;49.558;8.674;2022-08-21T06:25:08;9.40;;;6.90;;
21769;SDS011;11046;49.558;8.674;2022-08-21T06:28:10;11.02;;;6.32;;
21769;SDS011;11046;49.558;8.674;2022-08-21T06:31:17;8.27;;;5.53;;
21769;SDS011;11046;49.558;8.674;2022-08-21T06:34:18;9.25;;;5.50;;
21769;SDS011;11046;49.558;8.674;2022-08-21T06:37:19;9.77;;;5.88;;
21769;SDS011;11046;49.558;8.674;2022-08-21T06:40:20;13.00;;;6.70;;
21769;SDS011;11046;49.558;8.674;2022-08-21T06:43:21;11.18;;;6.30;;
21769;SDS011;11046;49.558;8.674;2022-08-21T06:46:26;10.48;;;5.70;;
21769;SDS011;11046;49.558;8.674;2022-08-21T06:49:28;9.43;;;6.03;;
21769;SDS011;11046;49.558;8.674;2022-08-21T06:52:29;8.77;;;6.13;;
21769;SDS011;11046;49.558;8.674;2022-08-21T06:55:30;9.48;;;6.13;;
21769;SDS011;11046;49.558;8.674;2022-08-21T06:58:31;6.93;;;5.50;;
21769;SDS011;11046;49.558;8.674;2022-08-21T07:01:32;8.35;;;5.40;;
21769;SDS011;11046;49.558;8.674;2022-08-21T07:04:33;8.52;;;5.65;;
21769;SDS011;11046;49.558;8.674;2022-08-21T07:07:34;8.25;;;5.25;;
21769;SDS011;11046;49.558;8.674;2022-08-21T07:10:35;7.35;;;5.15;;
21769;SDS011;11046;49.558;8.674;2022-08-21T07:13:36;9.15;;;5.15;;
21769;SDS011;11046;49.558;8.674;2022-08-21T07:16:38;8.88;;;5.43;;
21769;SDS011;11046;49.558;8.674;2022-08-21T07:19:39;11.80;;;5.18;;
21769;SDS011;11046;49.558;8.674;2022-08-21T07:22:40;7.68;;;5.55;;
21769;SDS011;11046;49.558;8.674;2022-08-21T07:25:41;7.20;;;4.93;;
21769;SDS011;11046;49.558;8.674;2022-08-21T07:28:42;10.95;;;5.43;;
21769;SDS011;11046;49.558;8.674;2022-08-21T07:31:43;12.52;;;6.57;;
21769;SDS011;11046;49.558;8.674;2022-08-21T07:34:44;11.40;;;6.57;;
21769;SDS011;11046;49.558;8.674;2022-08-21T07:37:45;8.90;;;6.00;;
21769;SDS011;11046;49.558;8.674;2022-08-21T07:40:46;10.88;;;6.22;;
21769;SDS011;11046;49.558;8.674;2022-08-21T07:43:48;10.02;;;6.10;;
21769;SDS011;11046;49.558;8.674;2022-08-21T07:46:49;11.45;;;5.63;;
21769;SDS011;11046;49.558;8.674;2022-08-21T07:49:50;13.32;;;6.20;;
21769;SDS011;11046;49.558;8.674;2022-08-21T07:52:51;11.35;;;5.72;;
21769;SDS011;11046;49.558;8.674;2022-08-21T07:55:52;11.90;;;5.57;;
21769;SDS011;11046;49.558;8.674;2022-08-21T07:58:53;13.05;;;5.78;;
21769;SDS011;11046;49.558;8.674;2022-08-21T08:01:55;11.27;;;5.80;;
21769;SDS011;11046;49.558;8.674;2022-08-21T08:05:00;10.55;;;5.43;;
21769;SDS011;11046;49.558;8.674;2022-08-21T08:08:01;11.85;;;5.63;;
21769;SDS011;11046;49.558;8.674;2022-08-21T08:11:02;9.93;;;5.10;;
21769;SDS011;11046;49.558;8.674;2022-08-21T08:14:03;10.07;;;5.60;;
21769;SDS011;11046;49.558;8.674;2022-08-21T08:17:05;7.65;;;5.55;;
21769;SDS011;11046;49.558;8.674;2022-08-21T08:20:06;11.07;;;6.65;;
21769;SDS011;11046;49.558;8.674;2022-08-21T08:23:11;13.15;;;6.60;;
21769;SDS011;11046;49.558;8.674;2022-08-21T08:26:12;8.75;;;5.50;;
21769;SDS011;11046;49.558;8.674;2022-08-21T08:29:15;10.35;;;6.15;;
21769;SDS011;11046;49.558;8.674;2022-08-21T08:32:16;12.52;;;5.65;;
21769;SDS011;11046;49.558;8.674;2022-08-21T08:35:18;9.25;;;5.35;;
21769;SDS011;11046;49.558;8.674;2022-08-21T08:38:20;8.25;;;4.70;;
21769;SDS011;11046;49.558;8.674;2022-08-21T08:41:21;8.80;;;5.30;;
21769;SDS011;11046;49.558;8.674;2022-08-21T08:44:23;10.60;;;5.63;;
21769;SDS011;11046;49.558;8.674;2022-08-21T08:47:24;9.93;;;5.90;;
21769;SDS011;11046;49.558;8.674;2022-08-21T08:50:38;8.82;;;5.00;;
21769;SDS011;11046;49.558;8.674;2022-08-21T08:53:47;8.02;;;5.80;;
21769;SDS011;11046;49.558;8.674;2022-08-21T08:56:49;9.75;;;5.78;;
21769;SDS011;11046;49.558;8.674;2022-08-21T08:59:53;9.77;;;5.88;;
21769;SDS011;11046;49.558;8.674;2022-08-21T09:02:56;11.70;;;5.43;;
21769;SDS011;11046;49.558;8.674;2022-08-21T09:18:58;10.73;;;6.63;;
21769;SDS011;11046;49.558;8.674;2022-08-21T09:22:08;13.68;;;6.25;;
21769;SDS011;11046;49.558;8.674;2022-08-21T09:28:41;11.00;;;5.63;;
21769;SDS011;11046;49.558;8.674;2022-08-21T09:31:42;10.55;;;5.70;;
21769;SDS011;11046;49.558;8.674;2022-08-21T09:34:54;8.02;;;4.28;;
21769;SDS011;11046;49.558;8.674;2022-08-21T09:37:57;9.88;;;4.28;;
21769;SDS011;11046;49.558;8.674;2022-08-21T09:41:04;11.07;;;4.03;;
21769;SDS011;11046;49.558;8.674;2022-08-21T09:44:06;7.18;;;3.75;;
21769;SDS011;11046;49.558;8.674;2022-08-21T09:47:07;7.53;;;3.40;;
21769;SDS011;11046;49.558;8.674;2022-08-21T09:53:31;7.22;;;3.35;;
21769;SDS011;11046;49.558;8.674;2022-08-21T09:56:34;6.13;;;2.72;;
21769;SDS011;11046;49.558;8.674;2022-08-21T09:59:54;6.03;;;2.88;;
21769;SDS011;11046;49.558;8.674;2022-08-21T10:03:09;4.78;;;3.10;;
21769;SDS011;11046;49.558;8.674;2022-08-21T10:06:19;7.93;;;3.40;;
21769;SDS011;11046;49.558;8.674;2022-08-21T10:09:21;7.57;;;2.95;;
21769;SDS011;11046;49.558;8.674;2022-08-21T10:12:23;7.75;;;2.95;;
21769;SDS011;11046;49.558;8.674;2022-08-21T10:19:13;7.13;;;2.83;;
21769;SDS011;11046;49.558;8.674;2022-08-21T10:22:16;7.10;;;3.60;;
21769;SDS011;11046;49.558;8.674;2022-08-21T10:31:32;8.65;;;3.25;;
21769;SDS011;11046;49.558;8.674;2022-08-21T10:40:52;8.40;;;3.78;;
21769;SDS011;11046;49.558;8.674;2022-08-21T10:44:08;7.53;;;4.03;;
21769;SDS011;11046;49.558;8.674;2022-08-21T10:47:32;8.63;;;3.70;;
21769;SDS011;11046;49.558;8.674;2022-08-21T10:50:39;10.50;;;4.18;;
21769;SDS011;11046;49.558;8.674;2022-08-21T10:57:04;6.32;;;3.25;;
21769;SDS011;11046;49.558;8.674;2022-08-21T11:00:11;7.03;;;3.17;;
21769;SDS011;11046;49.558;8.674;2022-08-21T11:03:16;6.78;;;3.13;;
21769;SDS011;11046;49.558;8.674;2022-08-21T11:06:22;4.65;;;3.08;;
21769;SDS011;11046;49.558;8.674;2022-08-21T11:09:24;10.40;;;3.38;;
21769;SDS011;11046;49.558;8.674;2022-08-21T11:12:29;5.70;;;3.17;;
21769;SDS011;11046;49.558;8.674;2022-08-21T11:15:43;6.95;;;2.97;;
21769;SDS011;11046;49.558;8.674;2022-08-21T11:18:47;7.32;;;3.00;;
21769;SDS011;11046;49.558;8.674;2022-08-21T11:21:54;7.00;;;3.10;;
21769;SDS011;11046;49.558;8.674;2022-08-21T11:25:00;5.65;;;2.83;;
21769;SDS011;11046;49.558;8.674;2022-08-21T11:28:06;8.90;;;3.28;;
21769;SDS011;11046;49.558;8.674;2022-08-21T11:37:48;8.45;;;3.30;;
21769;SDS011;11046;49.558;8.674;2022-08-21T11:47:37;5.25;;;2.97;;
21769;SDS011;11046;49.558;8.674;2022-08-21T11:50:39;5.22;;;3.10;;
21769;SDS011;11046;49.558;8.674;2022-08-21T11:53:50;6.78;;;2.92;;
21769;SDS011;11046;49.558;8.674;2022-08-21T11:57:05;6.07;;;3.13;;
21769;SDS011;11046;49.558;8.674;2022-08-21T12:00:28;6.85;;;3.00;;
21769;SDS011;11046;49.558;8.674;2022-08-21T12:03:36;7.10;;;2.70;;
21769;SDS011;11046;49.558;8.674;2022-08-21T12:06:40;4.03;;;2.38;;
21769;SDS011;11046;49.558;8.674;2022-08-21T12:09:51;6.35;;;2.83;;
21769;SDS011;11046;49.558;8.674;2022-08-21T12:12:54;7.18;;;2.47;;
21769;SDS011;11046;49.558;8.674;2022-08-21T12:16:06;7.38;;;2.30;;
21769;SDS011;11046;49.558;8.674;2022-08-21T12:22:13;4.80;;;2.35;;
21769;SDS011;11046;49.558;8.674;2022-08-21T12:25:16;7.32;;;2.55;;
21769;SDS011;11046;49.558;8.674;2022-08-21T12:28:22;5.03;;;2.47;;
21769;SDS011;11046;49.558;8.674;2022-08-21T12:31:25;7.75;;;2.53;;
21769;SDS011;11046;49.558;8.674;2022-08-21T12:34:31;4.70;;;2.42;;
21769;SDS011;11046;49.558;8.674;2022-08-21T12:37:41;5.28;;;2.50;;
21769;SDS011;11046;49.558;8.674;2022-08-21T12:40:46;4.20;;;2.50;;
21769;SDS011;11046;49.558;8.674;2022-08-21T12:43:56;5.05;;;2.42;;
21769;SDS011;11046;49.558;8.674;2022-08-21T12:47:00;4.47;;;2.63;;
21769;SDS011;11046;49.558;8.674;2022-08-21T12:50:08;6.32;;;2.85;;
21769;SDS011;11046;49.558;8.674;2022-08-21T12:53:23;3.92;;;2.20;;
21769;SDS011;11046;49.558;8.674;2022-08-21T12:56:27;4.53;;;1.98;;
21769;SDS011;11046;49.558;8.674;2022-08-21T12:59:29;3.95;;;2.38;;
21769;SDS011;11046;49.558;8.674;2022-08-21T13:02:32;5.05;;;2.40;;
21769;SDS011;11046;49.558;8.674;2022-08-21T13:05:35;5.43;;;2.67;;
21769;SDS011;11046;49.558;8.674;2022-08-21T13:08:38;5.90;;;2.60;;
21769;SDS011;11046;49.558;8.674;2022-08-21T13:11:40;7.82;;;2.72;;
21769;SDS011;11046;49.558;8.674;2022-08-21T13:14:43;5.65;;;2.90;;
21769;SDS011;11046;49.558;8.674;2022-08-21T13:17:46;3.58;;;2.22;;
21769;SDS011;11046;49.558;8.674;2022-08-21T13:20:48;7.35;;;2.78;;
21769;SDS011;11046;49.558;8.674;2022-08-21T13:23:49;5.25;;;2.58;;
21769;SDS011;11046;49.558;8.674;2022-08-21T13:26:50;6.10;;;2.80;;
21769;SDS011;11046;49.558;8.674;2022-08-21T13:30:11;6.97;;;2.50;;
21769;SDS011;11046;49.558;8.674;2022-08-21T13:33:14;6.82;;;2.60;;
21769;SDS011;11046;49.558;8.674;2022-08-21T13:36:20;5.18;;;2.78;;
21769;SDS011;11046;49.558;8.674;2022-08-21T13:39:25;5.53;;;2.60;;
21769;SDS011;11046;49.558;8.674;2022-08-21T13:42:26;5.53;;;2.58;;
21769;SDS011;11046;49.558;8.674;2022-08-21T13:45:30;6.55;;;2.90;;
21769;SDS011;11046;49.558;8.674;2022-08-21T13:48:32;7.47;;;2.85;;
21769;SDS011;11046;49.558;8.674;2022-08-21T13:51:35;4.63;;;2.45;;
21769;SDS011;11046;49.558;8.674;2022-08-21T13:54:37;6.65;;;2.83;;
21769;SDS011;11046;49.558;8.674;2022-08-21T13:57:47;7.22;;;2.95;;
21769;SDS011;11046;49.558;8.674;2022-08-21T14:01:05;4.85;;;2.55;;
21769;SDS011;11046;49.558;8.674;2022-08-21T14:04:34;6.32;;;2.78;;
21769;SDS011;11046;49.558;8.674;2022-08-21T14:07:37;5.40;;;2.60;;
21769;SDS011;11046;49.558;8.674;2022-08-21T14:10:44;6.47;;;2.63;;
21769;SDS011;11046;49.558;8.674;2022-08-21T14:13:57;4.78;;;2.53;;
21769;SDS011;11046;49.558;8.674;2022-08-21T14:17:03;5.70;;;3.13;;
21769;SDS011;11046;49.558;8.674;2022-08-21T14:20:05;5.55;;;2.70;;
21769;SDS011;11046;49.558;8.674;2022-08-21T14:23:07;5.38;;;3.30;;
21769;SDS011;11046;49.558;8.674;2022-08-21T14:26:09;5.85;;;2.72;;
21769;SDS011;11046;49.558;8.674;2022-08-21T14:29:11;6.05;;;2.63;;
21769;SDS011;11046;49.558;8.674;2022-08-21T14:32:14;6.32;;;2.70;;
21769;SDS011;11046;49.558;8.674;2022-08-21T14:35:16;7.93;;;3.20;;
21769;SDS011;11046;49.558;8.674;2022-08-21T14:38:21;3.65;;;2.60;;
21769;SDS011;11046;49.558;8.674;2022-08-21T14:41:23;5.00;;;2.80;;
21769;SDS011;11046;49.558;8.674;2022-08-21T14:44:26;7.78;;;2.80;;
21769;SDS011;11046;49.558;8.674;2022-08-21T14:47:27;5.90;;;2.90;;
21769;SDS011;11046;49.558;8.674;2022-08-21T14:50:28;5.82;;;2.67;;
21769;SDS011;11046;49.558;8.674;2022-08-21T14:53:30;6.93;;;2.55;;
21769;SDS011;11046;49.558;8.674;2022-08-21T14:56:31;8.45;;;2.88;;
21769;SDS011;11046;49.558;8.674;2022-08-21T14:59:32;7.25;;;2.90;;
21769;SDS011;11046;49.558;8.674;2022-08-21T15:02:34;4.35;;;2.60;;
21769;SDS011;11046;49.558;8.674;2022-08-21T15:05:35;5.47;;;2.78;;
21769;SDS011;11046;49.558;8.674;2022-08-21T15:08:36;8.35;;;2.70;;
21769;SDS011;11046;49.558;8.674;2022-08-21T15:11:37;5.63;;;2.70;;
21769;SDS011;11046;49.558;8.674;2022-08-21T15:14:39;8.43;;;2.55;;
21769;SDS011;11046;49.558;8.674;2022-08-21T15:17:40;5.70;;;2.42;;
21769;SDS011;11046;49.558;8.674;2022-08-21T15:20:41;6.82;;;2.60;;
21769;SDS011;11046;49.558;8.674;2022-08-21T15:23:42;6.22;;;2.92;;
21769;SDS011;11046;49.558;8.674;2022-08-21T15:26:43;7.47;;;2.90;;
21769;SDS011;11046;49.558;8.674;2022-08-21T15:29:45;7.03;;;2.60;;
21769;SDS011;11046;49.558;8.674;2022-08-21T15:32:46;6.88;;;2.90;;
21769;SDS011;11046;49.558;8.674;2022-08-21T15:35:47;5.53;;;2.70;;
21769;SDS011;11046;49.558;8.674;2022-08-21T15:38:48;6.80;;;2.58;;
21769;SDS011;11046;49.558;8.674;2022-08-21T15:41:50;6.25;;;2.50;;
21769;SDS011;11046;49.558;8.674;2022-08-21T15:44:51;5.18;;;2.70;;
21769;SDS011;11046;49.558;8.674;2022-08-21T15:47:52;3.90;;;2.38;;
21769;SDS011;11046;49.558;8.674;2022-08-21T15:50:53;6.90;;;2.92;;
21769;SDS011;11046;49.558;8.674;2022-08-21T15:53:54;6.22;;;2.50;;
21769;SDS011;11046;49.558;8.674;2022-08-21T15:56:55;8.20;;;2.58;;
21769;SDS011;11046;49.558;8.674;2022-08-21T15:59:57;6.57;;;2.55;;
21769;SDS011;11046;49.558;8.674;2022-08-21T16:03:13;5.40;;;2.63;;
21769;SDS011;11046;49.558;8.674;2022-08-21T16:06:16;5.47;;;2.40;;
21769;SDS011;11046;49.558;8.674;2022-08-21T16:09:17;5.40;;;2.53;;
21769;SDS011;11046;49.558;8.674;2022-08-21T16:12:29;7.35;;;2.75;;
21769;SDS011;11046;49.558;8.674;2022-08-21T16:15:31;6.78;;;2.55;;
21769;SDS011;11046;49.558;8.674;2022-08-21T16:21:59;8.15;;;3.00;;
21769;SDS011;11046;49.558;8.674;2022-08-21T16:25:22;5.63;;;2.42;;
21769;SDS011;11046;49.558;8.674;2022-08-21T16:28:26;5.60;;;2.42;;
21769;SDS011;11046;49.558;8.674;2022-08-21T16:34:43;6.20;;;2.70;;
21769;SDS011;11046;49.558;8.674;2022-08-21T16:38:36;7.35;;;2.65;;
21769;SDS011;11046;49.558;8.674;2022-08-21T16:41:42;6.78;;;2.60;;
21769;SDS011;11046;49.558;8.674;2022-08-21T16:44:49;5.38;;;2.25;;
21769;SDS011;11046;49.558;8.674;2022-08-21T16:48:15;8.65;;;2.60;;
21769;SDS011;11046;49.558;8.674;2022-08-21T16:51:16;8.30;;;2.53;;
21769;SDS011;11046;49.558;8.674;2022-08-21T16:54:38;7.63;;;2.40;;
21769;SDS011;11046;49.558;8.674;2022-08-21T16:58:27;4.68;;;2.53;;
21769;SDS011;11046;49.558;8.674;2022-08-21T17:01:41;7.90;;;2.60;;
21769;SDS011;11046;49.558;8.674;2022-08-21T17:05:07;4.35;;;2.05;;
21769;SDS011;11046;49.558;8.674;2022-08-21T17:08:31;4.60;;;2.22;;
21769;SDS011;11046;49.558;8.674;2022-08-21T17:11:38;4.22;;;2.22;;
21769;SDS011;11046;49.558;8.674;2022-08-21T17:14:43;7.20;;;2.53;;
21769;SDS011;11046;49.558;8.674;2022-08-21T17:17:44;7.20;;;2.47;;
21769;SDS011;11046;49.558;8.674;2022-08-21T17:20:48;4.90;;;2.60;;
21769;SDS011;11046;49.558;8.674;2022-08-21T17:23:49;6.18;;;2.38;;
21769;SDS011;11046;49.558;8.674;2022-08-21T17:26:51;5.45;;;2.33;;
21769;SDS011;11046;49.558;8.674;2022-08-21T17:29:53;7.20;;;2.30;;
21769;SDS011;11046;49.558;8.674;2022-08-21T17:33:00;4.65;;;2.63;;
21769;SDS011;11046;49.558;8.674;2022-08-21T17:36:16;7.57;;;2.60;;
21769;SDS011;11046;49.558;8.674;2022-08-21T17:39:29;8.77;;;2.50;;
21769;SDS011;11046;49.558;8.674;2022-08-21T17:42:30;6.40;;;2.13;;
21769;SDS011;11046;49.558;8.674;2022-08-21T17:45:34;8.00;;;2.88;;
21769;SDS011;11046;49.558;8.674;2022-08-21T17:52:37;6.15;;;2.50;;
21769;SDS011;11046;49.558;8.674;2022-08-21T17:56:07;5.05;;;2.75;;
21769;SDS011;11046;49.558;8.674;2022-08-21T18:03:02;6.45;;;2.38;;
21769;SDS011;11046;49.558;8.674;2022-08-21T18:06:34;5.82;;;2.58;;
21769;SDS011;11046;49.558;8.674;2022-08-21T18:09:35;7.63;;;2.63;;
21769;SDS011;11046;49.558;8.674;2022-08-21T18:12:37;9.50;;;2.58;;
21769;SDS011;11046;49.558;8.674;2022-08-21T18:15:46;8.02;;;2.80;;
21769;SDS011;11046;49.558;8.674;2022-08-21T18:19:12;8.07;;;2.80;;
21769;SDS011;11046;49.558;8.674;2022-08-21T18:22:29;4.65;;;2.60;;
21769;SDS011;11046;49.558;8.674;2022-08-21T18:25:30;7.93;;;2.83;;
21769;SDS011;11046;49.558;8.674;2022-08-21T18:28:38;5.50;;;2.80;;
21769;SDS011;11046;49.558;8.674;2022-08-21T18:31:46;5.35;;;3.17;;
21769;SDS011;11046;49.558;8.674;2022-08-21T18:34:48;6.47;;;2.65;;
21769;SDS011;11046;49.558;8.674;2022-08-21T18:37:50;8.60;;;2.97;;
21769;SDS011;11046;49.558;8.674;2022-08-21T18:40:51;6.10;;;2.60;;
21769;SDS011;11046;49.558;8.674;2022-08-21T18:43:55;4.80;;;2.42;;
21769;SDS011;11046;49.558;8.674;2022-08-21T18:49:57;5.68;;;2.60;;
21769;SDS011;11046;49.558;8.674;2022-08-21T18:52:58;6.65;;;2.63;;
21769;SDS011;11046;49.558;8.674;2022-08-21T18:55:59;5.55;;;2.80;;
21769;SDS011;11046;49.558;8.674;2022-08-21T18:59:01;6.53;;;2.53;;
21769;SDS011;11046;49.558;8.674;2022-08-21T19:02:04;9.35;;;3.10;;
21769;SDS011;11046;49.558;8.674;2022-08-21T19:05:09;5.03;;;3.25;;
21769;SDS011;11046;49.558;8.674;2022-08-21T19:08:11;4.95;;;2.90;;
21769;SDS011;11046;49.558;8.674;2022-08-21T19:11:13;5.80;;;3.10;;
21769;SDS011;11046;49.558;8.674;2022-08-21T19:14:15;6.60;;;3.00;;
21769;SDS011;11046;49.558;8.674;2022-08-21T19:17:17;4.95;;;2.70;;
21769;SDS011;11046;49.558;8.674;2022-08-21T19:20:25;5.68;;;3.17;;
21769;SDS011;11046;49.558;8.674;2022-08-21T19:23:27;5.32;;;2.88;;
21769;SDS011;11046;49.558;8.674;2022-08-21T19:26:31;4.50;;;2.83;;
21769;SDS011;11046;49.558;8.674;2022-08-21T19:29:34;8.25;;;3.13;;
21769;SDS011;11046;49.558;8.674;2022-08-21T19:32:36;8.88;;;3.17;;
21769;SDS011;11046;49.558;8.674;2022-08-21T19:35:38;5.53;;;2.83;;
21769;SDS011;11046;49.558;8.674;2022-08-21T19:38:40;5.72;;;2.88;;